sensor_id;sensor_type;location;lat;lon;timestamp;P1;durP1;ratioP1;P2;durP2;ratioP2
39502;SDS011;26970;49.900;10.774;2022-07-29T00:00:42;9.70;;;4.57;;
39502;SDS011;26970;49.900;10.774;2022-07-29T00:03:09;11.07;;;4.72;;
39502;SDS011;26970;49.900;10.774;2022-07-29T00:05:35;10.52;;;4.60;;
39502;SDS011;26970;49.900;10.774;2022-07-29T00:08:02;11.93;;;4.85;;
39502;SDS011;26970;49.900;10.774;2022-07-29T00:10:28;13.05;;;4.82;;
39502;SDS011;26970;49.900;10.774;2022-07-29T00:12:54;8.93;;;4.60;;
39502;SDS011;26970;49.900;10.774;2022-07-29T00:15:19;11.77;;;5.10;;
39502;SDS011;26970;49.900;10.774;2022-07-29T00:17:45;11.27;;;4.43;;
39502;SDS011;26970;49.900;10.774;2022-07-29T00:20:10;14.05;;;4.95;;
39502;SDS011;26970;49.900;10.774;2022-07-29T00:22:39;8.15;;;4.05;;
39502;SDS011;26970;49.900;10.774;2022-07-29T00:25:05;9.23;;;4.57;;
39502;SDS011;26970;49.900;10.774;2022-07-29T00:27:32;10.20;;;4.63;;
39502;SDS011;26970;49.900;10.774;2022-07-29T00:29:57;9.93;;;4.55;;
39502;SDS011;26970;49.900;10.774;2022-07-29T00:32:23;10.68;;;4.40;;
39502;SDS011;26970;49.900;10.774;2022-07-29T00:34:48;8.75;;;4.68;;
39502;SDS011;26970;49.900;10.774;2022-07-29T00:37:32;11.32;;;4.97;;
39502;SDS011;26970;49.900;10.774;2022-07-29T00:39:58;13.00;;;4.40;;
39502;SDS011;26970;49.900;10.774;2022-07-29T00:42:23;11.38;;;5.13;;
39502;SDS011;26970;49.900;10.774;2022-07-29T00:44:49;8.82;;;4.43;;
39502;SDS011;26970;49.900;10.774;2022-07-29T00:47:14;11.68;;;4.55;;
39502;SDS011;26970;49.900;10.774;2022-07-29T00:49:41;11.75;;;4.97;;
39502;SDS011;26970;49.900;10.774;2022-07-29T00:52:07;9.95;;;4.43;;
39502;SDS011;26970;49.900;10.774;2022-07-29T00:54:34;13.00;;;4.50;;
39502;SDS011;26970;49.900;10.774;2022-07-29T00:57:01;8.05;;;4.22;;
39502;SDS011;26970;49.900;10.774;2022-07-29T00:59:27;9.20;;;4.30;;
39502;SDS011;26970;49.900;10.774;2022-07-29T01:01:53;9.35;;;4.50;;
39502;SDS011;26970;49.900;10.774;2022-07-29T01:04:20;7.60;;;4.20;;
39502;SDS011;26970;49.900;10.774;2022-07-29T01:06:47;9.73;;;4.45;;
39502;SDS011;26970;49.900;10.774;2022-07-29T01:09:13;7.47;;;4.43;;
39502;SDS011;26970;49.900;10.774;2022-07-29T01:11:40;8.38;;;4.50;;
39502;SDS011;26970;49.900;10.774;2022-07-29T01:14:07;9.02;;;4.00;;
39502;SDS011;26970;49.900;10.774;2022-07-29T01:16:37;9.40;;;4.05;;
39502;SDS011;26970;49.900;10.774;2022-07-29T01:19:45;8.50;;;4.40;;
39502;SDS011;26970;49.900;10.774;2022-07-29T01:22:25;8.57;;;4.10;;
39502;SDS011;26970;49.900;10.774;2022-07-29T01:30:26;8.77;;;4.13;;
39502;SDS011;26970;49.900;10.774;2022-07-29T01:32:54;8.93;;;3.88;;
39502;SDS011;26970;49.900;10.774;2022-07-29T01:35:46;7.40;;;3.75;;
39502;SDS011;26970;49.900;10.774;2022-07-29T01:38:20;9.13;;;3.60;;
39502;SDS011;26970;49.900;10.774;2022-07-29T01:40:51;11.75;;;4.07;;
39502;SDS011;26970;49.900;10.774;2022-07-29T01:43:20;10.18;;;3.78;;
39502;SDS011;26970;49.900;10.774;2022-07-29T01:46:05;9.15;;;4.10;;
39502;SDS011;26970;49.900;10.774;2022-07-29T01:51:13;10.65;;;3.65;;
39502;SDS011;26970;49.900;10.774;2022-07-29T01:53:57;7.15;;;3.90;;
39502;SDS011;26970;49.900;10.774;2022-07-29T01:56:48;6.60;;;3.65;;
39502;SDS011;26970;49.900;10.774;2022-07-29T01:59:16;11.52;;;3.60;;
39502;SDS011;26970;49.900;10.774;2022-07-29T02:01:43;7.40;;;3.78;;
39502;SDS011;26970;49.900;10.774;2022-07-29T02:04:11;8.57;;;3.33;;
39502;SDS011;26970;49.900;10.774;2022-07-29T02:06:40;7.80;;;3.85;;
39502;SDS011;26970;49.900;10.774;2022-07-29T02:09:07;7.70;;;3.78;;
39502;SDS011;26970;49.900;10.774;2022-07-29T02:11:35;11.02;;;3.85;;
39502;SDS011;26970;49.900;10.774;2022-07-29T02:14:02;6.63;;;3.55;;
39502;SDS011;26970;49.900;10.774;2022-07-29T02:16:30;8.73;;;3.90;;
39502;SDS011;26970;49.900;10.774;2022-07-29T02:21:27;6.97;;;3.63;;
39502;SDS011;26970;49.900;10.774;2022-07-29T02:23:59;8.05;;;3.33;;
39502;SDS011;26970;49.900;10.774;2022-07-29T02:26:26;8.00;;;3.75;;
39502;SDS011;26970;49.900;10.774;2022-07-29T02:29:03;8.23;;;3.58;;
39502;SDS011;26970;49.900;10.774;2022-07-29T02:31:39;10.25;;;3.92;;
39502;SDS011;26970;49.900;10.774;2022-07-29T02:34:08;7.82;;;3.92;;
39502;SDS011;26970;49.900;10.774;2022-07-29T02:36:38;6.10;;;3.47;;
39502;SDS011;26970;49.900;10.774;2022-07-29T02:39:08;7.15;;;3.22;;
39502;SDS011;26970;49.900;10.774;2022-07-29T02:41:47;7.53;;;3.42;;
39502;SDS011;26970;49.900;10.774;2022-07-29T02:44:21;13.40;;;4.20;;
39502;SDS011;26970;49.900;10.774;2022-07-29T02:47:13;7.90;;;3.65;;
39502;SDS011;26970;49.900;10.774;2022-07-29T02:52:38;8.43;;;3.67;;
39502;SDS011;26970;49.900;10.774;2022-07-29T02:55:30;9.13;;;3.67;;
39502;SDS011;26970;49.900;10.774;2022-07-29T02:58:12;6.93;;;3.47;;
39502;SDS011;26970;49.900;10.774;2022-07-29T03:00:55;8.43;;;3.60;;
39502;SDS011;26970;49.900;10.774;2022-07-29T03:03:23;7.97;;;3.78;;
39502;SDS011;26970;49.900;10.774;2022-07-29T03:05:54;11.95;;;3.85;;
39502;SDS011;26970;49.900;10.774;2022-07-29T03:08:20;9.80;;;3.33;;
39502;SDS011;26970;49.900;10.774;2022-07-29T03:10:46;9.25;;;3.60;;
39502;SDS011;26970;49.900;10.774;2022-07-29T03:13:13;9.00;;;3.28;;
39502;SDS011;26970;49.900;10.774;2022-07-29T03:15:42;9.02;;;3.35;;
39502;SDS011;26970;49.900;10.774;2022-07-29T03:18:08;5.78;;;3.03;;
39502;SDS011;26970;49.900;10.774;2022-07-29T03:20:34;7.28;;;3.53;;
39502;SDS011;26970;49.900;10.774;2022-07-29T03:23:00;5.78;;;2.88;;
39502;SDS011;26970;49.900;10.774;2022-07-29T03:25:25;8.13;;;3.58;;
39502;SDS011;26970;49.900;10.774;2022-07-29T03:27:52;12.73;;;3.67;;
39502;SDS011;26970;49.900;10.774;2022-07-29T03:30:17;7.40;;;3.33;;
39502;SDS011;26970;49.900;10.774;2022-07-29T03:32:43;16.95;;;4.82;;
39502;SDS011;26970;49.900;10.774;2022-07-29T03:35:08;7.22;;;3.83;;
39502;SDS011;26970;49.900;10.774;2022-07-29T03:37:34;8.88;;;3.63;;
39502;SDS011;26970;49.900;10.774;2022-07-29T03:40:02;10.20;;;3.28;;
39502;SDS011;26970;49.900;10.774;2022-07-29T03:42:33;7.03;;;3.25;;
39502;SDS011;26970;49.900;10.774;2022-07-29T03:45:03;7.00;;;3.30;;
39502;SDS011;26970;49.900;10.774;2022-07-29T03:47:32;6.47;;;3.70;;
39502;SDS011;26970;49.900;10.774;2022-07-29T03:50:01;11.15;;;3.28;;
39502;SDS011;26970;49.900;10.774;2022-07-29T03:52:30;8.02;;;3.30;;
39502;SDS011;26970;49.900;10.774;2022-07-29T03:54:56;8.63;;;3.80;;
39502;SDS011;26970;49.900;10.774;2022-07-29T03:57:23;8.88;;;3.72;;
39502;SDS011;26970;49.900;10.774;2022-07-29T03:59:52;8.20;;;3.53;;
39502;SDS011;26970;49.900;10.774;2022-07-29T04:02:19;5.68;;;3.00;;
39502;SDS011;26970;49.900;10.774;2022-07-29T04:04:45;7.07;;;2.78;;
39502;SDS011;26970;49.900;10.774;2022-07-29T04:07:12;6.78;;;3.13;;
39502;SDS011;26970;49.900;10.774;2022-07-29T04:09:39;8.88;;;3.22;;
39502;SDS011;26970;49.900;10.774;2022-07-29T04:12:05;6.65;;;2.72;;
39502;SDS011;26970;49.900;10.774;2022-07-29T04:14:31;7.88;;;3.00;;
39502;SDS011;26970;49.900;10.774;2022-07-29T04:16:57;9.75;;;3.20;;
39502;SDS011;26970;49.900;10.774;2022-07-29T04:19:23;5.75;;;3.10;;
39502;SDS011;26970;49.900;10.774;2022-07-29T04:21:49;7.90;;;3.08;;
39502;SDS011;26970;49.900;10.774;2022-07-29T04:24:14;8.82;;;3.50;;
39502;SDS011;26970;49.900;10.774;2022-07-29T04:26:40;8.23;;;3.80;;
39502;SDS011;26970;49.900;10.774;2022-07-29T04:29:07;10.05;;;3.70;;
39502;SDS011;26970;49.900;10.774;2022-07-29T04:31:32;13.70;;;3.75;;
39502;SDS011;26970;49.900;10.774;2022-07-29T04:33:58;8.40;;;3.70;;
39502;SDS011;26970;49.900;10.774;2022-07-29T04:36:23;19.48;;;4.38;;
39502;SDS011;26970;49.900;10.774;2022-07-29T04:38:49;22.98;;;4.30;;
39502;SDS011;26970;49.900;10.774;2022-07-29T04:41:14;7.68;;;3.63;;
39502;SDS011;26970;49.900;10.774;2022-07-29T04:43:40;10.82;;;3.53;;
39502;SDS011;26970;49.900;10.774;2022-07-29T04:46:06;12.57;;;3.50;;
39502;SDS011;26970;49.900;10.774;2022-07-29T04:48:32;10.13;;;3.03;;
39502;SDS011;26970;49.900;10.774;2022-07-29T04:50:58;9.63;;;3.00;;
39502;SDS011;26970;49.900;10.774;2022-07-29T04:53:23;6.78;;;3.03;;
39502;SDS011;26970;49.900;10.774;2022-07-29T04:55:49;5.43;;;2.80;;
39502;SDS011;26970;49.900;10.774;2022-07-29T04:58:15;10.07;;;3.08;;
39502;SDS011;26970;49.900;10.774;2022-07-29T05:00:41;6.97;;;3.13;;
39502;SDS011;26970;49.900;10.774;2022-07-29T05:03:06;6.07;;;3.15;;
39502;SDS011;26970;49.900;10.774;2022-07-29T05:05:32;5.50;;;2.97;;
39502;SDS011;26970;49.900;10.774;2022-07-29T05:07:57;11.98;;;3.10;;
39502;SDS011;26970;49.900;10.774;2022-07-29T05:10:23;6.38;;;2.95;;
39502;SDS011;26970;49.900;10.774;2022-07-29T05:12:48;8.43;;;2.92;;
39502;SDS011;26970;49.900;10.774;2022-07-29T05:15:14;6.65;;;3.47;;
39502;SDS011;26970;49.900;10.774;2022-07-29T05:17:40;6.95;;;3.50;;
39502;SDS011;26970;49.900;10.774;2022-07-29T05:20:05;9.10;;;2.97;;
39502;SDS011;26970;49.900;10.774;2022-07-29T05:22:32;8.30;;;2.95;;
39502;SDS011;26970;49.900;10.774;2022-07-29T05:24:57;8.07;;;3.40;;
39502;SDS011;26970;49.900;10.774;2022-07-29T05:27:23;5.95;;;2.85;;
39502;SDS011;26970;49.900;10.774;2022-07-29T05:29:48;8.07;;;2.97;;
39502;SDS011;26970;49.900;10.774;2022-07-29T05:32:14;11.85;;;3.38;;
39502;SDS011;26970;49.900;10.774;2022-07-29T05:34:40;6.25;;;2.90;;
39502;SDS011;26970;49.900;10.774;2022-07-29T05:37:06;9.35;;;3.10;;
39502;SDS011;26970;49.900;10.774;2022-07-29T05:39:32;8.25;;;3.00;;
39502;SDS011;26970;49.900;10.774;2022-07-29T05:41:58;15.23;;;3.60;;
39502;SDS011;26970;49.900;10.774;2022-07-29T05:44:24;11.90;;;2.75;;
39502;SDS011;26970;49.900;10.774;2022-07-29T05:46:49;8.98;;;2.88;;
39502;SDS011;26970;49.900;10.774;2022-07-29T05:49:15;7.25;;;3.05;;
39502;SDS011;26970;49.900;10.774;2022-07-29T05:51:40;10.77;;;2.78;;
39502;SDS011;26970;49.900;10.774;2022-07-29T05:54:06;7.38;;;2.90;;
39502;SDS011;26970;49.900;10.774;2022-07-29T05:56:31;5.57;;;2.55;;
39502;SDS011;26970;49.900;10.774;2022-07-29T05:58:57;7.03;;;2.78;;
39502;SDS011;26970;49.900;10.774;2022-07-29T06:01:23;5.88;;;2.58;;
39502;SDS011;26970;49.900;10.774;2022-07-29T06:03:49;6.03;;;2.88;;
39502;SDS011;26970;49.900;10.774;2022-07-29T06:06:14;5.15;;;2.83;;
39502;SDS011;26970;49.900;10.774;2022-07-29T06:08:40;6.78;;;2.72;;
39502;SDS011;26970;49.900;10.774;2022-07-29T06:11:06;6.47;;;2.50;;
39502;SDS011;26970;49.900;10.774;2022-07-29T06:13:33;5.43;;;2.33;;
39502;SDS011;26970;49.900;10.774;2022-07-29T06:15:58;6.68;;;2.30;;
39502;SDS011;26970;49.900;10.774;2022-07-29T06:18:24;9.25;;;2.60;;
39502;SDS011;26970;49.900;10.774;2022-07-29T06:20:50;6.65;;;2.63;;
39502;SDS011;26970;49.900;10.774;2022-07-29T06:23:16;8.35;;;3.03;;
39502;SDS011;26970;49.900;10.774;2022-07-29T06:25:42;6.65;;;2.50;;
39502;SDS011;26970;49.900;10.774;2022-07-29T06:28:08;7.65;;;3.45;;
39502;SDS011;26970;49.900;10.774;2022-07-29T06:30:34;7.75;;;3.00;;
39502;SDS011;26970;49.900;10.774;2022-07-29T06:32:59;8.75;;;2.67;;
39502;SDS011;26970;49.900;10.774;2022-07-29T06:35:26;4.22;;;2.40;;
39502;SDS011;26970;49.900;10.774;2022-07-29T06:37:52;14.02;;;2.75;;
39502;SDS011;26970;49.900;10.774;2022-07-29T06:40:18;7.25;;;2.50;;
39502;SDS011;26970;49.900;10.774;2022-07-29T06:43:02;5.72;;;2.42;;
39502;SDS011;26970;49.900;10.774;2022-07-29T06:45:28;7.88;;;3.05;;
39502;SDS011;26970;49.900;10.774;2022-07-29T06:47:53;7.25;;;2.70;;
39502;SDS011;26970;49.900;10.774;2022-07-29T06:50:19;8.60;;;2.17;;
39502;SDS011;26970;49.900;10.774;2022-07-29T06:52:46;4.63;;;2.33;;
39502;SDS011;26970;49.900;10.774;2022-07-29T06:55:12;5.45;;;2.50;;
39502;SDS011;26970;49.900;10.774;2022-07-29T06:57:37;4.85;;;2.05;;
39502;SDS011;26970;49.900;10.774;2022-07-29T07:00:03;3.95;;;2.42;;
39502;SDS011;26970;49.900;10.774;2022-07-29T07:02:30;8.98;;;2.90;;
39502;SDS011;26970;49.900;10.774;2022-07-29T07:04:55;3.63;;;2.15;;
39502;SDS011;26970;49.900;10.774;2022-07-29T07:07:21;4.95;;;2.65;;
39502;SDS011;26970;49.900;10.774;2022-07-29T07:09:47;4.15;;;1.98;;
39502;SDS011;26970;49.900;10.774;2022-07-29T07:12:12;5.90;;;2.40;;
39502;SDS011;26970;49.900;10.774;2022-07-29T07:14:38;6.75;;;2.58;;
39502;SDS011;26970;49.900;10.774;2022-07-29T07:17:04;7.65;;;2.40;;
39502;SDS011;26970;49.900;10.774;2022-07-29T07:19:31;9.05;;;2.50;;
39502;SDS011;26970;49.900;10.774;2022-07-29T07:21:57;6.80;;;2.40;;
39502;SDS011;26970;49.900;10.774;2022-07-29T07:24:22;4.30;;;2.30;;
39502;SDS011;26970;49.900;10.774;2022-07-29T07:26:48;3.47;;;2.17;;
39502;SDS011;26970;49.900;10.774;2022-07-29T07:29:13;5.75;;;2.55;;
39502;SDS011;26970;49.900;10.774;2022-07-29T07:31:39;8.48;;;2.60;;
39502;SDS011;26970;49.900;10.774;2022-07-29T07:34:05;3.83;;;2.15;;
39502;SDS011;26970;49.900;10.774;2022-07-29T07:36:30;6.25;;;2.20;;
39502;SDS011;26970;49.900;10.774;2022-07-29T07:38:56;5.15;;;2.40;;
39502;SDS011;26970;49.900;10.774;2022-07-29T07:41:21;7.05;;;2.63;;
39502;SDS011;26970;49.900;10.774;2022-07-29T07:43:47;4.45;;;2.33;;
39502;SDS011;26970;49.900;10.774;2022-07-29T07:46:13;5.18;;;2.30;;
39502;SDS011;26970;49.900;10.774;2022-07-29T07:48:39;5.78;;;2.53;;
39502;SDS011;26970;49.900;10.774;2022-07-29T07:51:05;6.68;;;2.30;;
39502;SDS011;26970;49.900;10.774;2022-07-29T07:53:32;7.50;;;2.33;;
39502;SDS011;26970;49.900;10.774;2022-07-29T07:55:57;7.32;;;2.85;;
39502;SDS011;26970;49.900;10.774;2022-07-29T07:58:23;8.30;;;2.78;;
39502;SDS011;26970;49.900;10.774;2022-07-29T08:00:48;8.90;;;2.80;;
39502;SDS011;26970;49.900;10.774;2022-07-29T08:03:14;9.82;;;3.17;;
39502;SDS011;26970;49.900;10.774;2022-07-29T08:05:40;5.55;;;2.70;;
39502;SDS011;26970;49.900;10.774;2022-07-29T08:08:06;5.65;;;3.00;;
39502;SDS011;26970;49.900;10.774;2022-07-29T08:10:32;9.95;;;3.17;;
39502;SDS011;26970;49.900;10.774;2022-07-29T08:13:17;5.32;;;2.60;;
39502;SDS011;26970;49.900;10.774;2022-07-29T08:15:43;4.68;;;2.50;;
39502;SDS011;26970;49.900;10.774;2022-07-29T08:18:10;6.13;;;2.90;;
39502;SDS011;26970;49.900;10.774;2022-07-29T08:20:39;7.65;;;2.63;;
39502;SDS011;26970;49.900;10.774;2022-07-29T08:23:08;7.55;;;2.45;;
39502;SDS011;26970;49.900;10.774;2022-07-29T08:25:35;3.67;;;2.42;;
39502;SDS011;26970;49.900;10.774;2022-07-29T08:28:03;10.80;;;2.90;;
39502;SDS011;26970;49.900;10.774;2022-07-29T08:30:28;11.02;;;2.83;;
39502;SDS011;26970;49.900;10.774;2022-07-29T08:32:54;8.40;;;2.60;;
39502;SDS011;26970;49.900;10.774;2022-07-29T08:35:23;4.20;;;2.35;;
39502;SDS011;26970;49.900;10.774;2022-07-29T08:37:49;7.80;;;2.20;;
39502;SDS011;26970;49.900;10.774;2022-07-29T08:40:15;7.97;;;2.50;;
39502;SDS011;26970;49.900;10.774;2022-07-29T08:42:41;4.30;;;2.40;;
39502;SDS011;26970;49.900;10.774;2022-07-29T08:45:07;5.93;;;2.70;;
39502;SDS011;26970;49.900;10.774;2022-07-29T08:47:33;7.90;;;2.67;;
39502;SDS011;26970;49.900;10.774;2022-07-29T08:50:03;6.22;;;2.40;;
39502;SDS011;26970;49.900;10.774;2022-07-29T08:52:29;6.68;;;2.60;;
39502;SDS011;26970;49.900;10.774;2022-07-29T08:55:00;6.80;;;2.50;;
39502;SDS011;26970;49.900;10.774;2022-07-29T08:57:26;5.38;;;2.50;;
39502;SDS011;26970;49.900;10.774;2022-07-29T08:59:52;5.38;;;2.63;;
39502;SDS011;26970;49.900;10.774;2022-07-29T09:02:20;6.03;;;2.53;;
39502;SDS011;26970;49.900;10.774;2022-07-29T09:04:47;8.63;;;2.97;;
39502;SDS011;26970;49.900;10.774;2022-07-29T09:07:14;5.07;;;2.63;;
39502;SDS011;26970;49.900;10.774;2022-07-29T09:09:42;6.97;;;2.60;;
39502;SDS011;26970;49.900;10.774;2022-07-29T09:12:08;6.28;;;2.72;;
39502;SDS011;26970;49.900;10.774;2022-07-29T09:14:36;7.15;;;2.80;;
39502;SDS011;26970;49.900;10.774;2022-07-29T09:17:05;7.03;;;2.95;;
39502;SDS011;26970;49.900;10.774;2022-07-29T09:19:34;6.32;;;2.95;;
39502;SDS011;26970;49.900;10.774;2022-07-29T09:22:04;7.68;;;3.00;;
39502;SDS011;26970;49.900;10.774;2022-07-29T09:26:59;5.30;;;3.00;;
39502;SDS011;26970;49.900;10.774;2022-07-29T09:29:25;4.43;;;2.70;;
39502;SDS011;26970;49.900;10.774;2022-07-29T09:31:52;8.40;;;2.97;;
39502;SDS011;26970;49.900;10.774;2022-07-29T09:34:24;10.30;;;3.00;;
39502;SDS011;26970;49.900;10.774;2022-07-29T09:36:52;5.22;;;2.83;;
39502;SDS011;26970;49.900;10.774;2022-07-29T09:42:00;6.43;;;3.15;;
39502;SDS011;26970;49.900;10.774;2022-07-29T09:44:40;7.13;;;3.25;;
39502;SDS011;26970;49.900;10.774;2022-07-29T09:47:14;5.80;;;3.25;;
39502;SDS011;26970;49.900;10.774;2022-07-29T09:49:57;6.18;;;2.88;;
39502;SDS011;26970;49.900;10.774;2022-07-29T09:52:24;4.65;;;2.80;;
39502;SDS011;26970;49.900;10.774;2022-07-29T09:54:50;5.68;;;2.90;;
39502;SDS011;26970;49.900;10.774;2022-07-29T09:57:26;4.90;;;2.88;;
39502;SDS011;26970;49.900;10.774;2022-07-29T10:00:00;10.38;;;3.28;;
39502;SDS011;26970;49.900;10.774;2022-07-29T10:02:32;6.30;;;3.17;;
39502;SDS011;26970;49.900;10.774;2022-07-29T10:05:00;8.38;;;3.30;;
39502;SDS011;26970;49.900;10.774;2022-07-29T10:07:27;4.30;;;2.80;;
39502;SDS011;26970;49.900;10.774;2022-07-29T10:10:17;6.30;;;3.05;;
39502;SDS011;26970;49.900;10.774;2022-07-29T10:15:20;7.68;;;3.30;;
39502;SDS011;26970;49.900;10.774;2022-07-29T10:17:47;8.07;;;2.70;;
39502;SDS011;26970;49.900;10.774;2022-07-29T10:20:14;6.53;;;3.03;;
39502;SDS011;26970;49.900;10.774;2022-07-29T10:22:40;8.88;;;3.25;;
39502;SDS011;26970;49.900;10.774;2022-07-29T10:25:06;8.82;;;3.00;;
39502;SDS011;26970;49.900;10.774;2022-07-29T10:27:34;6.90;;;3.13;;
39502;SDS011;26970;49.900;10.774;2022-07-29T10:30:00;5.18;;;2.92;;
39502;SDS011;26970;49.900;10.774;2022-07-29T10:38:10;6.90;;;3.28;;
39502;SDS011;26970;49.900;10.774;2022-07-29T10:43:42;5.97;;;3.40;;
39502;SDS011;26970;49.900;10.774;2022-07-29T10:46:11;7.88;;;3.40;;
39502;SDS011;26970;49.900;10.774;2022-07-29T10:57:29;6.47;;;3.22;;
39502;SDS011;26970;49.900;10.774;2022-07-29T11:05:11;7.30;;;3.00;;
39502;SDS011;26970;49.900;10.774;2022-07-29T11:10:41;4.25;;;2.90;;
39502;SDS011;26970;49.900;10.774;2022-07-29T11:13:07;6.78;;;3.00;;
39502;SDS011;26970;49.900;10.774;2022-07-29T11:15:54;7.20;;;3.33;;
39502;SDS011;26970;49.900;10.774;2022-07-29T11:18:20;13.23;;;3.35;;
39502;SDS011;26970;49.900;10.774;2022-07-29T11:20:47;6.30;;;3.00;;
39502;SDS011;26970;49.900;10.774;2022-07-29T11:28:59;5.73;;;2.97;;
39502;SDS011;26970;49.900;10.774;2022-07-29T11:34:15;8.35;;;3.30;;
39502;SDS011;26970;49.900;10.774;2022-07-29T11:40:07;6.78;;;3.22;;
39502;SDS011;26970;49.900;10.774;2022-07-29T11:44:56;6.90;;;3.10;;
39502;SDS011;26970;49.900;10.774;2022-07-29T11:47:49;10.07;;;3.33;;
39502;SDS011;26970;49.900;10.774;2022-07-29T11:50:37;6.45;;;2.85;;
39502;SDS011;26970;49.900;10.774;2022-07-29T11:53:03;10.07;;;3.17;;
39502;SDS011;26970;49.900;10.774;2022-07-29T11:55:37;6.15;;;3.10;;
39502;SDS011;26970;49.900;10.774;2022-07-29T11:58:06;4.75;;;2.92;;
39502;SDS011;26970;49.900;10.774;2022-07-29T12:00:39;6.45;;;3.00;;
39502;SDS011;26970;49.900;10.774;2022-07-29T12:03:07;6.72;;;3.58;;
39502;SDS011;26970;49.900;10.774;2022-07-29T12:05:38;7.43;;;3.55;;
39502;SDS011;26970;49.900;10.774;2022-07-29T12:08:05;7.95;;;3.28;;
39502;SDS011;26970;49.900;10.774;2022-07-29T12:10:51;7.75;;;3.30;;
39502;SDS011;26970;49.900;10.774;2022-07-29T12:13:18;7.07;;;3.70;;
39502;SDS011;26970;49.900;10.774;2022-07-29T12:15:54;6.68;;;3.40;;
39502;SDS011;26970;49.900;10.774;2022-07-29T12:18:22;9.35;;;3.03;;
39502;SDS011;26970;49.900;10.774;2022-07-29T12:20:48;7.55;;;3.53;;
39502;SDS011;26970;49.900;10.774;2022-07-29T12:23:13;7.32;;;3.20;;
39502;SDS011;26970;49.900;10.774;2022-07-29T12:25:41;8.00;;;3.40;;
39502;SDS011;26970;49.900;10.774;2022-07-29T12:28:11;6.72;;;3.40;;
39502;SDS011;26970;49.900;10.774;2022-07-29T12:33:13;6.55;;;3.20;;
39502;SDS011;26970;49.900;10.774;2022-07-29T12:35:42;7.45;;;3.08;;
39502;SDS011;26970;49.900;10.774;2022-07-29T12:38:10;8.02;;;3.58;;
39502;SDS011;26970;49.900;10.774;2022-07-29T12:40:37;5.18;;;3.40;;
39502;SDS011;26970;49.900;10.774;2022-07-29T12:43:13;6.25;;;3.65;;
39502;SDS011;26970;49.900;10.774;2022-07-29T12:46:11;5.53;;;3.20;;
39502;SDS011;26970;49.900;10.774;2022-07-29T12:48:40;5.15;;;3.20;;
39502;SDS011;26970;49.900;10.774;2022-07-29T12:51:07;4.43;;;2.67;;
39502;SDS011;26970;49.900;10.774;2022-07-29T12:53:35;5.35;;;3.40;;
39502;SDS011;26970;49.900;10.774;2022-07-29T12:56:01;5.15;;;3.03;;
39502;SDS011;26970;49.900;10.774;2022-07-29T12:58:32;4.38;;;3.20;;
39502;SDS011;26970;49.900;10.774;2022-07-29T13:03:28;6.40;;;3.20;;
39502;SDS011;26970;49.900;10.774;2022-07-29T13:06:05;7.80;;;3.47;;
39502;SDS011;26970;49.900;10.774;2022-07-29T13:08:31;5.95;;;2.92;;
39502;SDS011;26970;49.900;10.774;2022-07-29T13:10:57;4.57;;;3.05;;
39502;SDS011;26970;49.900;10.774;2022-07-29T13:13:22;6.43;;;3.20;;
39502;SDS011;26970;49.900;10.774;2022-07-29T13:15:53;5.00;;;2.97;;
39502;SDS011;26970;49.900;10.774;2022-07-29T13:18:33;4.80;;;3.17;;
39502;SDS011;26970;49.900;10.774;2022-07-29T13:21:11;4.63;;;3.00;;
39502;SDS011;26970;49.900;10.774;2022-07-29T13:23:38;6.00;;;3.05;;
39502;SDS011;26970;49.900;10.774;2022-07-29T13:26:08;6.30;;;3.17;;
39502;SDS011;26970;49.900;10.774;2022-07-29T13:28:34;5.85;;;3.10;;
39502;SDS011;26970;49.900;10.774;2022-07-29T13:31:00;4.32;;;2.97;;
39502;SDS011;26970;49.900;10.774;2022-07-29T13:33:26;6.72;;;3.20;;
39502;SDS011;26970;49.900;10.774;2022-07-29T13:35:51;6.72;;;3.00;;
39502;SDS011;26970;49.900;10.774;2022-07-29T13:38:17;4.85;;;3.20;;
39502;SDS011;26970;49.900;10.774;2022-07-29T13:40:43;5.53;;;3.15;;
39502;SDS011;26970;49.900;10.774;2022-07-29T13:43:09;7.75;;;3.30;;
39502;SDS011;26970;49.900;10.774;2022-07-29T13:45:35;4.68;;;2.90;;
39502;SDS011;26970;49.900;10.774;2022-07-29T13:48:00;8.15;;;3.47;;
39502;SDS011;26970;49.900;10.774;2022-07-29T13:50:26;5.85;;;3.10;;
39502;SDS011;26970;49.900;10.774;2022-07-29T13:52:51;5.32;;;3.05;;
39502;SDS011;26970;49.900;10.774;2022-07-29T13:55:17;4.88;;;3.38;;
39502;SDS011;26970;49.900;10.774;2022-07-29T13:57:43;3.95;;;3.00;;
39502;SDS011;26970;49.900;10.774;2022-07-29T14:00:09;4.55;;;2.88;;
39502;SDS011;26970;49.900;10.774;2022-07-29T14:02:35;5.45;;;2.97;;
39502;SDS011;26970;49.900;10.774;2022-07-29T14:05:02;6.57;;;3.25;;
39502;SDS011;26970;49.900;10.774;2022-07-29T14:07:28;4.55;;;3.28;;
39502;SDS011;26970;49.900;10.774;2022-07-29T14:09:53;7.07;;;3.40;;
39502;SDS011;26970;49.900;10.774;2022-07-29T14:12:19;6.15;;;3.50;;
39502;SDS011;26970;49.900;10.774;2022-07-29T14:14:44;6.50;;;3.80;;
39502;SDS011;26970;49.900;10.774;2022-07-29T14:17:10;7.25;;;3.25;;
39502;SDS011;26970;49.900;10.774;2022-07-29T14:19:36;5.15;;;3.10;;
39502;SDS011;26970;49.900;10.774;2022-07-29T14:22:03;8.32;;;3.83;;
39502;SDS011;26970;49.900;10.774;2022-07-29T14:24:30;8.50;;;3.42;;
39502;SDS011;26970;49.900;10.774;2022-07-29T14:26:56;4.75;;;3.17;;
39502;SDS011;26970;49.900;10.774;2022-07-29T14:29:22;5.40;;;3.50;;
39502;SDS011;26970;49.900;10.774;2022-07-29T14:31:47;6.05;;;3.50;;
39502;SDS011;26970;49.900;10.774;2022-07-29T14:34:13;4.03;;;3.05;;
39502;SDS011;26970;49.900;10.774;2022-07-29T14:36:40;6.18;;;3.42;;
39502;SDS011;26970;49.900;10.774;2022-07-29T14:39:06;5.80;;;3.50;;
39502;SDS011;26970;49.900;10.774;2022-07-29T14:41:31;5.72;;;3.38;;
39502;SDS011;26970;49.900;10.774;2022-07-29T14:43:57;7.10;;;3.40;;
39502;SDS011;26970;49.900;10.774;2022-07-29T14:46:25;5.43;;;3.40;;
39502;SDS011;26970;49.900;10.774;2022-07-29T14:48:52;8.57;;;3.53;;
39502;SDS011;26970;49.900;10.774;2022-07-29T14:51:17;10.48;;;3.45;;
39502;SDS011;26970;49.900;10.774;2022-07-29T14:53:43;4.95;;;3.65;;
39502;SDS011;26970;49.900;10.774;2022-07-29T14:56:09;8.10;;;3.40;;
39502;SDS011;26970;49.900;10.774;2022-07-29T14:58:34;5.88;;;3.55;;
39502;SDS011;26970;49.900;10.774;2022-07-29T15:01:00;5.43;;;3.00;;
39502;SDS011;26970;49.900;10.774;2022-07-29T15:03:26;7.50;;;3.47;;
39502;SDS011;26970;49.900;10.774;2022-07-29T15:05:52;7.20;;;3.60;;
39502;SDS011;26970;49.900;10.774;2022-07-29T15:08:18;6.70;;;3.53;;
39502;SDS011;26970;49.900;10.774;2022-07-29T15:10:44;47.58;;;5.85;;
39502;SDS011;26970;49.900;10.774;2022-07-29T15:13:09;10.98;;;3.92;;
39502;SDS011;26970;49.900;10.774;2022-07-29T15:15:35;28.25;;;4.65;;
39502;SDS011;26970;49.900;10.774;2022-07-29T15:18:01;15.75;;;4.25;;
39502;SDS011;26970;49.900;10.774;2022-07-29T15:20:26;13.20;;;3.55;;
39502;SDS011;26970;49.900;10.774;2022-07-29T15:22:52;64.32;;;5.80;;
39502;SDS011;26970;49.900;10.774;2022-07-29T15:25:20;17.33;;;4.22;;
39502;SDS011;26970;49.900;10.774;2022-07-29T15:27:46;10.65;;;3.40;;
39502;SDS011;26970;49.900;10.774;2022-07-29T15:30:12;11.35;;;3.95;;
39502;SDS011;26970;49.900;10.774;2022-07-29T15:32:37;106.88;;;7.68;;
39502;SDS011;26970;49.900;10.774;2022-07-29T15:35:03;34.40;;;4.97;;
39502;SDS011;26970;49.900;10.774;2022-07-29T15:37:29;21.63;;;4.53;;
39502;SDS011;26970;49.900;10.774;2022-07-29T15:39:55;17.63;;;4.50;;
39502;SDS011;26970;49.900;10.774;2022-07-29T15:42:20;21.80;;;5.25;;
39502;SDS011;26970;49.900;10.774;2022-07-29T15:44:46;16.38;;;5.22;;